sensor_id;sensor_type;location;lat;lon;timestamp;pressure;altitude;pressure_sealevel;temperature
66372;BMP180;53168;51.146;17.120;2022-09-06T00:00:16;100992.00;;;17.10
66372;BMP180;53168;51.146;17.120;2022-09-06T00:02:57;100995.60;;;17.00
66372;BMP180;53168;51.146;17.120;2022-09-06T00:05:26;100996.40;;;17.00
66372;BMP180;53168;51.146;17.120;2022-09-06T00:07:57;100997.40;;;16.90
66372;BMP180;53168;51.146;17.120;2022-09-06T00:10:28;100999.00;;;16.80
66372;BMP180;53168;51.146;17.120;2022-09-06T00:13:03;100995.00;;;16.80
66372;BMP180;53168;51.146;17.120;2022-09-06T00:15:33;100993.00;;;16.74
66372;BMP180;53168;51.146;17.120;2022-09-06T00:18:05;100991.20;;;16.68
66372;BMP180;53168;51.146;17.120;2022-09-06T00:20:37;100985.00;;;16.60
66372;BMP180;53168;51.146;17.120;2022-09-06T00:23:09;100984.60;;;16.50
66372;BMP180;53168;51.146;17.120;2022-09-06T00:25:39;100983.00;;;16.40
66372;BMP180;53168;51.146;17.120;2022-09-06T00:28:09;100984.00;;;16.30
66372;BMP180;53168;51.146;17.120;2022-09-06T00:30:38;100982.60;;;16.30
66372;BMP180;53168;51.146;17.120;2022-09-06T00:33:09;100980.40;;;16.20
66372;BMP180;53168;51.146;17.120;2022-09-06T00:35:38;100977.80;;;16.10
66372;BMP180;53168;51.146;17.120;2022-09-06T00:38:07;100975.00;;;16.10
66372;BMP180;53168;51.146;17.120;2022-09-06T00:40:37;100979.40;;;16.10
66372;BMP180;53168;51.146;17.120;2022-09-06T00:43:06;100979.20;;;16.00
66372;BMP180;53168;51.146;17.120;2022-09-06T00:45:35;100975.40;;;16.00
66372;BMP180;53168;51.146;17.120;2022-09-06T00:48:05;100977.60;;;15.90
66372;BMP180;53168;51.146;17.120;2022-09-06T00:50:35;100976.40;;;15.80
66372;BMP180;53168;51.146;17.120;2022-09-06T00:53:04;100977.20;;;15.70
66372;BMP180;53168;51.146;17.120;2022-09-06T00:55:33;100974.80;;;15.70
66372;BMP180;53168;51.146;17.120;2022-09-06T00:58:03;100978.00;;;15.60
66372;BMP180;53168;51.146;17.120;2022-09-06T01:00:32;100974.40;;;15.58
66372;BMP180;53168;51.146;17.120;2022-09-06T01:03:01;100976.40;;;15.50
66372;BMP180;53168;51.146;17.120;2022-09-06T01:05:42;100973.20;;;15.50
66372;BMP180;53168;51.146;17.120;2022-09-06T01:08:36;100975.80;;;15.44
66372;BMP180;53168;51.146;17.120;2022-09-06T01:11:34;100978.80;;;15.42
66372;BMP180;53168;51.146;17.120;2022-09-06T01:21:54;100974.20;;;15.60
66372;BMP180;53168;51.146;17.120;2022-09-06T01:24:57;100977.40;;;15.50
66372;BMP180;53168;51.146;17.120;2022-09-06T01:28:08;100973.60;;;15.50
66372;BMP180;53168;51.146;17.120;2022-09-06T01:34:29;100971.60;;;15.50
66372;BMP180;53168;51.146;17.120;2022-09-06T01:37:04;100975.60;;;15.50
66372;BMP180;53168;51.146;17.120;2022-09-06T01:39:42;100972.20;;;15.50
66372;BMP180;53168;51.146;17.120;2022-09-06T01:42:16;100972.80;;;15.50
66372;BMP180;53168;51.146;17.120;2022-09-06T01:44:53;100973.40;;;15.50
66372;BMP180;53168;51.146;17.120;2022-09-06T01:47:38;100975.20;;;15.50
66372;BMP180;53168;51.146;17.120;2022-09-06T01:51:00;100973.60;;;15.50
66372;BMP180;53168;51.146;17.120;2022-09-06T01:54:40;100977.20;;;15.50
66372;BMP180;53168;51.146;17.120;2022-09-06T02:02:00;100972.40;;;15.60
66372;BMP180;53168;51.146;17.120;2022-09-06T02:04:40;100976.80;;;15.60
66372;BMP180;53168;51.146;17.120;2022-09-06T02:07:18;100979.40;;;15.60
66372;BMP180;53168;51.146;17.120;2022-09-06T02:09:53;100978.20;;;15.60
66372;BMP180;53168;51.146;17.120;2022-09-06T02:12:27;100976.80;;;15.58
66372;BMP180;53168;51.146;17.120;2022-09-06T02:15:03;100971.60;;;15.50
66372;BMP180;53168;51.146;17.120;2022-09-06T02:17:44;100970.00;;;15.50
66372;BMP180;53168;51.146;17.120;2022-09-06T02:20:25;100972.40;;;15.50
66372;BMP180;53168;51.146;17.120;2022-09-06T02:23:28;100967.00;;;15.40
66372;BMP180;53168;51.146;17.120;2022-09-06T02:26:11;100964.00;;;15.40
66372;BMP180;53168;51.146;17.120;2022-09-06T02:28:58;100959.60;;;15.30
66372;BMP180;53168;51.146;17.120;2022-09-06T02:31:34;100959.20;;;15.20
66372;BMP180;53168;51.146;17.120;2022-09-06T02:34:06;100957.40;;;15.10
66372;BMP180;53168;51.146;17.120;2022-09-06T02:36:37;100961.80;;;15.00
66372;BMP180;53168;51.146;17.120;2022-09-06T02:39:07;100957.20;;;14.90
66372;BMP180;53168;51.146;17.120;2022-09-06T02:41:38;100954.40;;;14.80
66372;BMP180;53168;51.146;17.120;2022-09-06T02:44:07;100952.60;;;14.70
66372;BMP180;53168;51.146;17.120;2022-09-06T02:46:37;100956.00;;;14.70
66372;BMP180;53168;51.146;17.120;2022-09-06T02:49:07;100958.80;;;14.60
66372;BMP180;53168;51.146;17.120;2022-09-06T02:51:39;100955.80;;;14.50
66372;BMP180;53168;51.146;17.120;2022-09-06T02:54:08;100956.60;;;14.40
66372;BMP180;53168;51.146;17.120;2022-09-06T02:56:38;100954.20;;;14.40
66372;BMP180;53168;51.146;17.120;2022-09-06T02:59:12;100945.20;;;14.30
66372;BMP180;53168;51.146;17.120;2022-09-06T03:01:45;100944.80;;;14.26
66372;BMP180;53168;51.146;17.120;2022-09-06T03:04:14;100943.20;;;14.20
66372;BMP180;53168;51.146;17.120;2022-09-06T03:06:43;100940.80;;;14.10
66372;BMP180;53168;51.146;17.120;2022-09-06T03:09:12;100940.80;;;14.10
66372;BMP180;53168;51.146;17.120;2022-09-06T03:11:42;100936.80;;;14.00
66372;BMP180;53168;51.146;17.120;2022-09-06T03:14:11;100939.20;;;14.00
66372;BMP180;53168;51.146;17.120;2022-09-06T03:16:42;100941.20;;;13.90
66372;BMP180;53168;51.146;17.120;2022-09-06T03:19:12;100941.80;;;13.90
66372;BMP180;53168;51.146;17.120;2022-09-06T03:21:41;100941.60;;;13.90
66372;BMP180;53168;51.146;17.120;2022-09-06T03:24:11;100938.00;;;13.80
66372;BMP180;53168;51.146;17.120;2022-09-06T03:26:41;100940.20;;;13.80
66372;BMP180;53168;51.146;17.120;2022-09-06T03:29:16;100948.40;;;13.70
66372;BMP180;53168;51.146;17.120;2022-09-06T03:31:45;100946.20;;;13.70
66372;BMP180;53168;51.146;17.120;2022-09-06T03:34:14;100938.40;;;13.68
66372;BMP180;53168;51.146;17.120;2022-09-06T03:36:43;100941.80;;;13.60
66372;BMP180;53168;51.146;17.120;2022-09-06T03:39:13;100940.40;;;13.60
66372;BMP180;53168;51.146;17.120;2022-09-06T03:41:42;100942.60;;;13.70
66372;BMP180;53168;51.146;17.120;2022-09-06T03:44:11;100939.40;;;13.70
66372;BMP180;53168;51.146;17.120;2022-09-06T03:46:43;100939.40;;;13.80
66372;BMP180;53168;51.146;17.120;2022-09-06T03:49:16;100937.40;;;13.90
66372;BMP180;53168;51.146;17.120;2022-09-06T03:51:52;100937.40;;;13.90
66372;BMP180;53168;51.146;17.120;2022-09-06T03:54:27;100929.60;;;13.90
66372;BMP180;53168;51.146;17.120;2022-09-06T03:56:57;100938.00;;;14.00
66372;BMP180;53168;51.146;17.120;2022-09-06T03:59:27;100938.00;;;14.00
66372;BMP180;53168;51.146;17.120;2022-09-06T04:01:56;100939.60;;;14.00
66372;BMP180;53168;51.146;17.120;2022-09-06T04:04:25;100937.00;;;14.00
66372;BMP180;53168;51.146;17.120;2022-09-06T04:06:54;100937.60;;;14.00
66372;BMP180;53168;51.146;17.120;2022-09-06T04:09:24;100935.20;;;14.00
66372;BMP180;53168;51.146;17.120;2022-09-06T04:11:53;100933.80;;;14.00
66372;BMP180;53168;51.146;17.120;2022-09-06T04:14:22;100929.60;;;14.00
66372;BMP180;53168;51.146;17.120;2022-09-06T04:16:53;100930.60;;;14.00
66372;BMP180;53168;51.146;17.120;2022-09-06T04:19:25;100929.20;;;14.00
66372;BMP180;53168;51.146;17.120;2022-09-06T04:21:55;100927.80;;;14.00
66372;BMP180;53168;51.146;17.120;2022-09-06T04:24:25;100925.00;;;14.00
66372;BMP180;53168;51.146;17.120;2022-09-06T04:27:01;100924.00;;;14.10
66372;BMP180;53168;51.146;17.120;2022-09-06T04:29:33;100922.20;;;14.20
66372;BMP180;53168;51.146;17.120;2022-09-06T04:32:03;100918.00;;;14.20
66372;BMP180;53168;51.146;17.120;2022-09-06T04:34:33;100921.60;;;14.30
66372;BMP180;53168;51.146;17.120;2022-09-06T04:37:11;100930.80;;;14.40
66372;BMP180;53168;51.146;17.120;2022-09-06T04:39:43;100927.60;;;14.60
66372;BMP180;53168;51.146;17.120;2022-09-06T04:42:22;100932.20;;;14.70
66372;BMP180;53168;51.146;17.120;2022-09-06T04:44:57;100931.20;;;14.80
66372;BMP180;53168;51.146;17.120;2022-09-06T04:47:26;100924.40;;;14.90
66372;BMP180;53168;51.146;17.120;2022-09-06T04:49:55;100915.20;;;14.84
66372;BMP180;53168;51.146;17.120;2022-09-06T04:52:25;100910.20;;;14.80
66372;BMP180;53168;51.146;17.120;2022-09-06T04:54:58;100909.40;;;14.70
66372;BMP180;53168;51.146;17.120;2022-09-06T04:57:27;100907.60;;;14.70
66372;BMP180;53168;51.146;17.120;2022-09-06T04:59:56;100904.80;;;14.70
66372;BMP180;53168;51.146;17.120;2022-09-06T05:02:25;100906.00;;;14.70
66372;BMP180;53168;51.146;17.120;2022-09-06T05:04:55;100914.20;;;14.70
66372;BMP180;53168;51.146;17.120;2022-09-06T05:07:24;100925.20;;;14.70
66372;BMP180;53168;51.146;17.120;2022-09-06T05:09:53;100926.20;;;14.78
66372;BMP180;53168;51.146;17.120;2022-09-06T05:12:23;100931.00;;;14.80
66372;BMP180;53168;51.146;17.120;2022-09-06T05:15:34;100933.60;;;14.80
66372;BMP180;53168;51.146;17.120;2022-09-06T05:18:10;100934.20;;;14.90
66372;BMP180;53168;51.146;17.120;2022-09-06T05:21:03;100942.00;;;15.00
66372;BMP180;53168;51.146;17.120;2022-09-06T05:27:10;100945.20;;;15.10
66372;BMP180;53168;51.146;17.120;2022-09-06T05:29:41;100943.40;;;15.10
66372;BMP180;53168;51.146;17.120;2022-09-06T05:32:10;100943.00;;;15.14
66372;BMP180;53168;51.146;17.120;2022-09-06T05:34:40;100943.20;;;15.16
66372;BMP180;53168;51.146;17.120;2022-09-06T05:37:09;100941.00;;;15.14
66372;BMP180;53168;51.146;17.120;2022-09-06T05:39:38;100949.20;;;15.10
66372;BMP180;53168;51.146;17.120;2022-09-06T05:42:08;100955.00;;;15.10
66372;BMP180;53168;51.146;17.120;2022-09-06T05:44:42;100958.00;;;15.10
66372;BMP180;53168;51.146;17.120;2022-09-06T05:47:11;100956.40;;;15.12
66372;BMP180;53168;51.146;17.120;2022-09-06T05:49:41;100954.60;;;15.20
66372;BMP180;53168;51.146;17.120;2022-09-06T05:52:10;100949.00;;;15.20
66372;BMP180;53168;51.146;17.120;2022-09-06T05:54:40;100943.00;;;15.30
66372;BMP180;53168;51.146;17.120;2022-09-06T05:57:09;100941.00;;;15.30
66372;BMP180;53168;51.146;17.120;2022-09-06T05:59:48;100939.40;;;15.40
66372;BMP180;53168;51.146;17.120;2022-09-06T06:02:17;100942.00;;;15.58
66372;BMP180;53168;51.146;17.120;2022-09-06T06:04:47;100945.00;;;15.62
66372;BMP180;53168;51.146;17.120;2022-09-06T06:07:17;100945.20;;;15.70
66372;BMP180;53168;51.146;17.120;2022-09-06T06:09:46;100942.60;;;15.72
66372;BMP180;53168;51.146;17.120;2022-09-06T06:12:15;100940.60;;;15.80
66372;BMP180;53168;51.146;17.120;2022-09-06T06:14:45;100942.00;;;15.92
66372;BMP180;53168;51.146;17.120;2022-09-06T06:17:15;100944.00;;;16.10
66372;BMP180;53168;51.146;17.120;2022-09-06T06:19:44;100947.20;;;16.24
66372;BMP180;53168;51.146;17.120;2022-09-06T06:22:13;100943.00;;;16.40
66372;BMP180;53168;51.146;17.120;2022-09-06T06:24:43;100952.40;;;16.50
66372;BMP180;53168;51.146;17.120;2022-09-06T06:27:14;100951.00;;;16.70
66372;BMP180;53168;51.146;17.120;2022-09-06T06:30:12;100952.40;;;16.80
66372;BMP180;53168;51.146;17.120;2022-09-06T06:33:07;100945.00;;;17.00
66372;BMP180;53168;51.146;17.120;2022-09-06T06:35:36;100941.40;;;17.10
66372;BMP180;53168;51.146;17.120;2022-09-06T06:38:09;100941.00;;;17.18
66372;BMP180;53168;51.146;17.120;2022-09-06T06:40:49;100941.60;;;17.20
66372;BMP180;53168;51.146;17.120;2022-09-06T06:43:40;100941.20;;;17.30
66372;BMP180;53168;51.146;17.120;2022-09-06T06:46:12;100942.00;;;17.40
66372;BMP180;53168;51.146;17.120;2022-09-06T06:48:44;100939.40;;;17.56
66372;BMP180;53168;51.146;17.120;2022-09-06T06:51:16;100931.20;;;17.70
66372;BMP180;53168;51.146;17.120;2022-09-06T06:53:46;100940.20;;;17.80
66372;BMP180;53168;51.146;17.120;2022-09-06T06:56:20;100944.40;;;17.80
66372;BMP180;53168;51.146;17.120;2022-09-06T06:58:52;100943.80;;;17.80
66372;BMP180;53168;51.146;17.120;2022-09-06T07:01:23;100948.40;;;17.80
66372;BMP180;53168;51.146;17.120;2022-09-06T07:03:54;100946.60;;;17.80
66372;BMP180;53168;51.146;17.120;2022-09-06T07:06:24;100943.00;;;17.80
66372;BMP180;53168;51.146;17.120;2022-09-06T07:09:16;100935.80;;;17.80
66372;BMP180;53168;51.146;17.120;2022-09-06T07:11:47;100939.80;;;17.80
66372;BMP180;53168;51.146;17.120;2022-09-06T07:14:17;100936.20;;;17.80
66372;BMP180;53168;51.146;17.120;2022-09-06T07:16:47;100942.40;;;17.80
66372;BMP180;53168;51.146;17.120;2022-09-06T07:19:17;100946.80;;;17.80
66372;BMP180;53168;51.146;17.120;2022-09-06T07:22:06;100947.60;;;17.80
66372;BMP180;53168;51.146;17.120;2022-09-06T07:24:39;100947.40;;;17.84
66372;BMP180;53168;51.146;17.120;2022-09-06T07:27:08;100946.40;;;17.90
66372;BMP180;53168;51.146;17.120;2022-09-06T07:29:58;100945.60;;;17.90
66372;BMP180;53168;51.146;17.120;2022-09-06T07:32:27;100947.40;;;17.90
66372;BMP180;53168;51.146;17.120;2022-09-06T07:34:56;100953.60;;;17.90
66372;BMP180;53168;51.146;17.120;2022-09-06T07:37:25;100947.40;;;17.90
66372;BMP180;53168;51.146;17.120;2022-09-06T07:39:54;100951.60;;;17.90
66372;BMP180;53168;51.146;17.120;2022-09-06T07:42:23;100958.60;;;17.90
66372;BMP180;53168;51.146;17.120;2022-09-06T07:44:52;100958.00;;;17.90
66372;BMP180;53168;51.146;17.120;2022-09-06T07:47:25;100962.00;;;17.90
66372;BMP180;53168;51.146;17.120;2022-09-06T07:50:14;100967.40;;;17.92
66372;BMP180;53168;51.146;17.120;2022-09-06T07:53:05;100964.40;;;18.00
66372;BMP180;53168;51.146;17.120;2022-09-06T07:55:39;100972.60;;;18.00
66372;BMP180;53168;51.146;17.120;2022-09-06T07:58:08;100973.00;;;18.08
66372;BMP180;53168;51.146;17.120;2022-09-06T08:00:38;100971.60;;;18.10
66372;BMP180;53168;51.146;17.120;2022-09-06T08:03:08;100971.40;;;18.14
66372;BMP180;53168;51.146;17.120;2022-09-06T08:05:37;100974.80;;;18.30
66372;BMP180;53168;51.146;17.120;2022-09-06T08:08:27;100970.80;;;18.40
66372;BMP180;53168;51.146;17.120;2022-09-06T08:11:17;100965.40;;;18.64
66372;BMP180;53168;51.146;17.120;2022-09-06T08:13:50;100968.20;;;18.80
66372;BMP180;53168;51.146;17.120;2022-09-06T08:16:20;100966.00;;;18.98
66372;BMP180;53168;51.146;17.120;2022-09-06T08:18:52;100961.00;;;19.08
66372;BMP180;53168;51.146;17.120;2022-09-06T08:21:43;100954.20;;;19.20
66372;BMP180;53168;51.146;17.120;2022-09-06T08:25:18;100953.80;;;19.40
66372;BMP180;53168;51.146;17.120;2022-09-06T08:27:48;100947.60;;;19.56
66372;BMP180;53168;51.146;17.120;2022-09-06T08:30:17;100945.20;;;19.68
66372;BMP180;53168;51.146;17.120;2022-09-06T08:32:46;100938.40;;;19.70
66372;BMP180;53168;51.146;17.120;2022-09-06T08:35:16;100927.40;;;19.70
66372;BMP180;53168;51.146;17.120;2022-09-06T08:37:45;100925.80;;;19.70
66372;BMP180;53168;51.146;17.120;2022-09-06T08:40:20;100929.20;;;19.70
66372;BMP180;53168;51.146;17.120;2022-09-06T08:42:51;100930.80;;;19.80
66372;BMP180;53168;51.146;17.120;2022-09-06T08:45:20;100926.60;;;19.80
66372;BMP180;53168;51.146;17.120;2022-09-06T08:47:51;100925.20;;;19.90
66372;BMP180;53168;51.146;17.120;2022-09-06T08:50:21;100924.60;;;19.90
66372;BMP180;53168;51.146;17.120;2022-09-06T08:53:18;100929.40;;;19.90
66372;BMP180;53168;51.146;17.120;2022-09-06T08:55:56;100924.40;;;19.86
66372;BMP180;53168;51.146;17.120;2022-09-06T08:58:58;100931.00;;;19.86
66372;BMP180;53168;51.146;17.120;2022-09-06T09:01:40;100933.20;;;19.86
66372;BMP180;53168;51.146;17.120;2022-09-06T09:04:19;100927.20;;;19.90
66372;BMP180;53168;51.146;17.120;2022-09-06T09:06:58;100922.80;;;20.00
66372;BMP180;53168;51.146;17.120;2022-09-06T09:09:32;100922.40;;;20.10
66372;BMP180;53168;51.146;17.120;2022-09-06T09:12:03;100921.00;;;20.30
66372;BMP180;53168;51.146;17.120;2022-09-06T09:14:36;100918.20;;;20.50
66372;BMP180;53168;51.146;17.120;2022-09-06T09:17:18;100916.20;;;20.70
66372;BMP180;53168;51.146;17.120;2022-09-06T09:19:49;100910.60;;;20.98
66372;BMP180;53168;51.146;17.120;2022-09-06T09:22:19;100915.60;;;21.24
66372;BMP180;53168;51.146;17.120;2022-09-06T09:24:49;100915.80;;;21.56
66372;BMP180;53168;51.146;17.120;2022-09-06T09:27:26;100916.40;;;21.90
66372;BMP180;53168;51.146;17.120;2022-09-06T09:30:02;100914.20;;;22.30
66372;BMP180;53168;51.146;17.120;2022-09-06T09:32:53;100913.20;;;22.74
66372;BMP180;53168;51.146;17.120;2022-09-06T09:35:31;100907.40;;;23.02
66372;BMP180;53168;51.146;17.120;2022-09-06T09:38:06;100904.20;;;23.38
66372;BMP180;53168;51.146;17.120;2022-09-06T09:40:48;100899.00;;;23.70
66372;BMP180;53168;51.146;17.120;2022-09-06T09:43:22;100904.80;;;23.96
66372;BMP180;53168;51.146;17.120;2022-09-06T09:46:26;100906.00;;;24.10
66372;BMP180;53168;51.146;17.120;2022-09-06T09:49:07;100911.00;;;24.10
66372;BMP180;53168;51.146;17.120;2022-09-06T09:51:40;100913.20;;;24.10
66372;BMP180;53168;51.146;17.120;2022-09-06T09:54:12;100911.40;;;24.10
66372;BMP180;53168;51.146;17.120;2022-09-06T09:56:51;100911.40;;;24.10
66372;BMP180;53168;51.146;17.120;2022-09-06T09:59:54;100912.20;;;24.20
66372;BMP180;53168;51.146;17.120;2022-09-06T10:02:30;100914.60;;;24.36
66372;BMP180;53168;51.146;17.120;2022-09-06T10:05:06;100911.40;;;24.40
66372;BMP180;53168;51.146;17.120;2022-09-06T10:07:44;100909.00;;;24.30
66372;BMP180;53168;51.146;17.120;2022-09-06T10:10:21;100903.60;;;24.40
66372;BMP180;53168;51.146;17.120;2022-09-06T10:13:07;100900.60;;;24.50
66372;BMP180;53168;51.146;17.120;2022-09-06T10:15:40;100894.00;;;24.72
66372;BMP180;53168;51.146;17.120;2022-09-06T10:18:27;100890.20;;;24.90
66372;BMP180;53168;51.146;17.120;2022-09-06T10:21:01;100895.40;;;24.90
66372;BMP180;53168;51.146;17.120;2022-09-06T10:23:47;100903.00;;;24.90
66372;BMP180;53168;51.146;17.120;2022-09-06T10:26:47;100900.80;;;24.84
66372;BMP180;53168;51.146;17.120;2022-09-06T10:29:32;100897.20;;;24.80
66372;BMP180;53168;51.146;17.120;2022-09-06T10:32:22;100892.80;;;24.72
66372;BMP180;53168;51.146;17.120;2022-09-06T10:35:19;100881.20;;;24.82
66372;BMP180;53168;51.146;17.120;2022-09-06T10:38:13;100881.00;;;25.00
66372;BMP180;53168;51.146;17.120;2022-09-06T10:40:55;100879.20;;;25.10
66372;BMP180;53168;51.146;17.120;2022-09-06T10:43:39;100868.20;;;25.28
66372;BMP180;53168;51.146;17.120;2022-09-06T10:46:15;100858.20;;;25.40
66372;BMP180;53168;51.146;17.120;2022-09-06T10:48:52;100860.00;;;25.50
66372;BMP180;53168;51.146;17.120;2022-09-06T10:51:37;100858.20;;;25.76
66372;BMP180;53168;51.146;17.120;2022-09-06T10:54:11;100850.00;;;25.96
66372;BMP180;53168;51.146;17.120;2022-09-06T10:56:46;100840.00;;;26.10
66372;BMP180;53168;51.146;17.120;2022-09-06T10:59:26;100843.00;;;26.20
66372;BMP180;53168;51.146;17.120;2022-09-06T11:02:15;100842.20;;;26.34
66372;BMP180;53168;51.146;17.120;2022-09-06T11:04:51;100837.00;;;26.40
66372;BMP180;53168;51.146;17.120;2022-09-06T11:27:57;100807.60;;;26.82
66372;BMP180;53168;51.146;17.120;2022-09-06T11:30:30;100805.20;;;27.36
66372;BMP180;53168;51.146;17.120;2022-09-06T11:33:16;100807.80;;;27.40
66372;BMP180;53168;51.146;17.120;2022-09-06T11:35:48;100811.00;;;27.50
66372;BMP180;53168;51.146;17.120;2022-09-06T11:38:25;100809.60;;;27.60
66372;BMP180;53168;51.146;17.120;2022-09-06T11:41:03;100817.60;;;27.60
66372;BMP180;53168;51.146;17.120;2022-09-06T11:43:48;100817.60;;;27.50
66372;BMP180;53168;51.146;17.120;2022-09-06T11:46:59;100813.40;;;27.30
66372;BMP180;53168;51.146;17.120;2022-09-06T11:49:38;100812.80;;;27.10
66372;BMP180;53168;51.146;17.120;2022-09-06T11:53:08;100808.40;;;27.00
66372;BMP180;53168;51.146;17.120;2022-09-06T11:55:43;100803.40;;;27.18
66372;BMP180;53168;51.146;17.120;2022-09-06T11:58:27;100803.40;;;27.30
66372;BMP180;53168;51.146;17.120;2022-09-06T12:01:34;100795.40;;;27.42
66372;BMP180;53168;51.146;17.120;2022-09-06T12:04:09;100786.40;;;27.90
66372;BMP180;53168;51.146;17.120;2022-09-06T12:07:06;100799.20;;;28.30
66372;BMP180;53168;51.146;17.120;2022-09-06T12:09:39;100808.40;;;28.00
66372;BMP180;53168;51.146;17.120;2022-09-06T12:12:11;100805.00;;;27.78
66372;BMP180;53168;51.146;17.120;2022-09-06T12:15:25;100807.20;;;27.58
66372;BMP180;53168;51.146;17.120;2022-09-06T12:17:55;100809.20;;;27.40
66372;BMP180;53168;51.146;17.120;2022-09-06T12:21:02;100807.40;;;27.30
66372;BMP180;53168;51.146;17.120;2022-09-06T12:23:43;100802.40;;;27.10
66372;BMP180;53168;51.146;17.120;2022-09-06T12:26:47;100800.40;;;26.90
66372;BMP180;53168;51.146;17.120;2022-09-06T12:29:26;100795.80;;;26.70
66372;BMP180;53168;51.146;17.120;2022-09-06T12:31:58;100789.60;;;26.70
66372;BMP180;53168;51.146;17.120;2022-09-06T12:34:33;100779.60;;;26.70
66372;BMP180;53168;51.146;17.120;2022-09-06T12:37:06;100784.20;;;26.72
66372;BMP180;53168;51.146;17.120;2022-09-06T12:40:17;100783.00;;;26.80
66372;BMP180;53168;51.146;17.120;2022-09-06T12:43:07;100781.00;;;26.90
66372;BMP180;53168;51.146;17.120;2022-09-06T12:46:12;100778.20;;;27.10
66372;BMP180;53168;51.146;17.120;2022-09-06T12:49:41;100777.00;;;27.34
66372;BMP180;53168;51.146;17.120;2022-09-06T12:52:18;100769.40;;;27.70
66372;BMP180;53168;51.146;17.120;2022-09-06T12:55:20;100770.20;;;28.18
66372;BMP180;53168;51.146;17.120;2022-09-06T12:57:53;100769.40;;;28.88
66372;BMP180;53168;51.146;17.120;2022-09-06T13:00:25;100767.40;;;29.38
66372;BMP180;53168;51.146;17.120;2022-09-06T13:03:10;100764.80;;;29.90
66372;BMP180;53168;51.146;17.120;2022-09-06T13:05:47;100757.20;;;30.84
66372;BMP180;53168;51.146;17.120;2022-09-06T13:08:25;100757.00;;;31.50
66372;BMP180;53168;51.146;17.120;2022-09-06T13:10:57;100758.60;;;31.88
66372;BMP180;53168;51.146;17.120;2022-09-06T13:13:27;100747.40;;;32.14
66372;BMP180;53168;51.146;17.120;2022-09-06T13:15:56;100731.80;;;33.04
66372;BMP180;53168;51.146;17.120;2022-09-06T13:18:35;100728.80;;;34.22
66372;BMP180;53168;51.146;17.120;2022-09-06T13:21:07;100735.40;;;35.06
66372;BMP180;53168;51.146;17.120;2022-09-06T13:23:45;100731.20;;;35.40
66372;BMP180;53168;51.146;17.120;2022-09-06T13:26:32;100731.00;;;35.20
66372;BMP180;53168;51.146;17.120;2022-09-06T13:29:20;100727.80;;;35.10
66372;BMP180;53168;51.146;17.120;2022-09-06T13:31:52;100723.80;;;35.20
66372;BMP180;53168;51.146;17.120;2022-09-06T13:34:24;100720.60;;;35.66
66372;BMP180;53168;51.146;17.120;2022-09-06T13:36:59;100713.40;;;36.12
66372;BMP180;53168;51.146;17.120;2022-09-06T13:39:35;100710.40;;;36.10
66372;BMP180;53168;51.146;17.120;2022-09-06T13:45:25;100711.80;;;35.36
66372;BMP180;53168;51.146;17.120;2022-09-06T13:48:32;100714.20;;;35.06
66372;BMP180;53168;51.146;17.120;2022-09-06T13:51:26;100710.40;;;34.70
66372;BMP180;53168;51.146;17.120;2022-09-06T13:54:06;100715.40;;;34.20
66372;BMP180;53168;51.146;17.120;2022-09-06T13:56:37;100722.00;;;33.80
66372;BMP180;53168;51.146;17.120;2022-09-06T13:59:26;100720.40;;;33.40
66372;BMP180;53168;51.146;17.120;2022-09-06T14:02:01;100722.40;;;33.30
66372;BMP180;53168;51.146;17.120;2022-09-06T14:04:32;100719.80;;;33.10
66372;BMP180;53168;51.146;17.120;2022-09-06T14:07:02;100721.00;;;32.86
66372;BMP180;53168;51.146;17.120;2022-09-06T14:09:31;100722.60;;;32.52
66372;BMP180;53168;51.146;17.120;2022-09-06T14:12:01;100718.20;;;32.50
66372;BMP180;53168;51.146;17.120;2022-09-06T14:14:30;100718.80;;;32.50
66372;BMP180;53168;51.146;17.120;2022-09-06T14:17:07;100714.80;;;32.30
66372;BMP180;53168;51.146;17.120;2022-09-06T14:19:37;100709.60;;;32.04
66372;BMP180;53168;51.146;17.120;2022-09-06T14:22:08;100705.60;;;31.70
66372;BMP180;53168;51.146;17.120;2022-09-06T14:24:38;100710.20;;;31.32
66372;BMP180;53168;51.146;17.120;2022-09-06T14:27:39;100704.40;;;30.70
66372;BMP180;53168;51.146;17.120;2022-09-06T14:30:44;100703.60;;;30.10
66372;BMP180;53168;51.146;17.120;2022-09-06T14:33:34;100696.00;;;29.60
66372;BMP180;53168;51.146;17.120;2022-09-06T14:36:18;100694.20;;;29.30
66372;BMP180;53168;51.146;17.120;2022-09-06T14:38:59;100693.60;;;29.10
66372;BMP180;53168;51.146;17.120;2022-09-06T14:41:35;100696.00;;;28.82
66372;BMP180;53168;51.146;17.120;2022-09-06T14:44:09;100698.00;;;28.60
66372;BMP180;53168;51.146;17.120;2022-09-06T14:46:38;100699.00;;;28.40
66372;BMP180;53168;51.146;17.120;2022-09-06T14:49:12;100694.20;;;28.30
66372;BMP180;53168;51.146;17.120;2022-09-06T14:51:42;100696.20;;;28.10
66372;BMP180;53168;51.146;17.120;2022-09-06T14:54:14;100693.20;;;27.80
66372;BMP180;53168;51.146;17.120;2022-09-06T14:56:44;100694.60;;;27.60
66372;BMP180;53168;51.146;17.120;2022-09-06T14:59:15;100689.60;;;27.46
66372;BMP180;53168;51.146;17.120;2022-09-06T15:01:47;100684.00;;;27.40
66372;BMP180;53168;51.146;17.120;2022-09-06T15:04:17;100678.60;;;27.42
66372;BMP180;53168;51.146;17.120;2022-09-06T15:10:21;100659.40;;;30.16
66372;BMP180;53168;51.146;17.120;2022-09-06T15:13:09;100663.40;;;32.58
66372;BMP180;53168;51.146;17.120;2022-09-06T15:16:18;100679.60;;;33.20
66372;BMP180;53168;51.146;17.120;2022-09-06T15:18:56;100678.80;;;33.80
66372;BMP180;53168;51.146;17.120;2022-09-06T15:21:31;100680.80;;;33.32
66372;BMP180;53168;51.146;17.120;2022-09-06T15:24:02;100681.40;;;32.54
66372;BMP180;53168;51.146;17.120;2022-09-06T15:26:36;100682.40;;;31.82